createdAt,value
2023-03-07T00:02:55.465Z,5.20
2023-03-07T00:06:04.873Z,7.90
2023-03-07T00:09:10.333Z,10.17
2023-03-07T00:12:17.356Z,8.70
2023-03-07T00:15:25.176Z,4.43
2023-03-07T00:18:30.235Z,5.23
2023-03-07T00:21:35.390Z,6.73
2023-03-07T00:24:46.790Z,5.23
2023-03-07T00:27:53.375Z,12.33
2023-03-07T00:31:03.932Z,9.37
2023-03-07T00:34:08.892Z,8.97
2023-03-07T00:37:15.186Z,8.53
2023-03-07T00:40:20.594Z,7.77
2023-03-07T00:43:27.300Z,9.13
2023-03-07T00:46:32.810Z,15.80
2023-03-07T00:49:38.337Z,10.37
2023-03-07T00:52:44.440Z,9.93
2023-03-07T00:55:59.452Z,8.07
2023-03-07T00:59:06.284Z,7.73
2023-03-07T01:02:12.590Z,8.07
2023-03-07T01:05:17.963Z,12.47
2023-03-07T01:08:23.951Z,11.00
2023-03-07T01:11:30.387Z,12.80
2023-03-07T01:14:37.004Z,8.17
2023-03-07T01:17:42.406Z,13.37
2023-03-07T01:20:47.784Z,9.20
2023-03-07T01:23:53.516Z,7.13
2023-03-07T01:26:58.993Z,7.47
2023-03-07T01:30:05.862Z,6.47
2023-03-07T01:33:13.375Z,7.97
2023-03-07T01:36:21.002Z,6.10
2023-03-07T01:39:26.626Z,8.37
2023-03-07T01:42:36.345Z,5.97
2023-03-07T01:46:24.274Z,12.00
2023-03-07T01:49:35.469Z,6.47
2023-03-07T01:52:44.755Z,9.07
2023-03-07T01:55:49.962Z,5.87
2023-03-07T01:58:57.674Z,9.77
2023-03-07T02:02:07.344Z,9.13
2023-03-07T02:05:16.809Z,5.90
2023-03-07T02:08:26.003Z,5.90
2023-03-07T02:11:31.293Z,5.50
2023-03-07T02:14:36.769Z,5.93
2023-03-07T02:17:42.480Z,10.70
2023-03-07T02:20:57.697Z,5.23
2023-03-07T02:24:08.392Z,5.00
2023-03-07T02:27:16.021Z,7.63
2023-03-07T02:30:21.367Z,7.37
2023-03-07T02:33:30.896Z,6.47
2023-03-07T02:36:40.386Z,9.77
2023-03-07T02:39:57.110Z,8.07
2023-03-07T02:43:09.712Z,9.03
2023-03-07T02:46:17.583Z,8.20
2023-03-07T02:49:23.079Z,5.17
2023-03-07T02:52:29.908Z,9.23
2023-03-07T02:55:35.800Z,7.83
2023-03-07T02:58:44.683Z,4.20
2023-03-07T03:01:49.998Z,8.50
2023-03-07T03:04:55.357Z,6.93
2023-03-07T03:08:01.802Z,6.70
2023-03-07T03:11:09.033Z,6.27
2023-03-07T03:14:16.784Z,5.00
2023-03-07T03:17:24.074Z,5.33
2023-03-07T03:20:29.382Z,4.80
2023-03-07T03:23:34.993Z,11.30
2023-03-07T03:26:40.207Z,6.30
2023-03-07T03:29:47.685Z,10.03
2023-03-07T03:32:53.306Z,7.97
2023-03-07T03:35:58.937Z,11.73
2023-03-07T03:39:07.234Z,8.37
2023-03-07T03:42:12.462Z,9.97
2023-03-07T03:45:19.764Z,10.03
2023-03-07T03:48:25.110Z,8.60
2023-03-07T03:51:31.093Z,7.23
2023-03-07T03:54:36.800Z,9.17
2023-03-07T03:57:42.076Z,6.20
2023-03-07T04:00:48.721Z,7.10
2023-03-07T04:03:54.959Z,8.00
2023-03-07T04:07:00.770Z,4.23
2023-03-07T04:10:07.193Z,5.03
2023-03-07T04:13:15.078Z,4.33
2023-03-07T04:16:23.753Z,9.03
2023-03-07T04:19:29.603Z,4.77
2023-03-07T04:22:36.431Z,3.73
2023-03-07T04:25:41.759Z,3.90
2023-03-07T04:28:46.692Z,5.67
2023-03-07T04:31:57.763Z,4.97
2023-03-07T04:35:02.931Z,5.67
2023-03-07T04:38:08.285Z,3.83
2023-03-07T04:41:15.830Z,6.00
2023-03-07T04:44:22.218Z,6.33
2023-03-07T04:47:30.229Z,5.43
2023-03-07T04:50:35.259Z,5.17
2023-03-07T04:53:42.448Z,5.43
2023-03-07T04:56:48.018Z,3.80
2023-03-07T04:59:54.342Z,4.10
2023-03-07T05:03:02.982Z,11.03
2023-03-07T05:06:12.857Z,5.90
2023-03-07T05:09:18.876Z,7.53
2023-03-07T05:12:24.132Z,8.00
2023-03-07T05:15:30.270Z,3.90
2023-03-07T05:18:37.238Z,4.00
2023-03-07T05:21:44.287Z,5.20
2023-03-07T05:24:50.861Z,4.70
2023-03-07T05:27:56.429Z,6.70
2023-03-07T05:31:04.135Z,4.90
2023-03-07T05:34:13.297Z,4.40
2023-03-07T05:37:21.934Z,4.10
2023-03-07T05:40:27.769Z,4.27
2023-03-07T05:43:35.180Z,3.73
2023-03-07T05:46:41.121Z,6.07
2023-03-07T05:49:48.397Z,3.37
2023-03-07T05:52:55.765Z,8.47
2023-03-07T05:56:03.457Z,6.30
2023-03-07T05:59:12.922Z,3.13
2023-03-07T06:02:19.007Z,4.97
2023-03-07T06:05:25.668Z,2.30
2023-03-07T06:08:32.926Z,3.37
2023-03-07T06:11:40.127Z,2.50
2023-03-07T06:14:45.050Z,2.70
2023-03-07T06:17:50.488Z,2.40
2023-03-07T06:20:59.205Z,6.50
2023-03-07T06:24:08.752Z,3.10
2023-03-07T06:27:14.118Z,2.73
2023-03-07T06:30:19.635Z,7.83
2023-03-07T06:33:24.723Z,2.60
2023-03-07T06:36:31.725Z,4.73
2023-03-07T06:39:42.482Z,2.60
2023-03-07T06:42:48.476Z,2.33
2023-03-07T06:45:55.127Z,2.83
2023-03-07T06:49:02.665Z,2.50
2023-03-07T06:52:09.611Z,2.57
2023-03-07T06:55:15.923Z,5.57
2023-03-07T06:58:21.104Z,2.10
2023-03-07T07:01:26.720Z,2.27
2023-03-07T07:04:35.294Z,2.00
2023-03-07T07:07:42.154Z,2.57
2023-03-07T07:10:48.490Z,2.10
2023-03-07T07:13:54.038Z,4.27
2023-03-07T07:16:59.758Z,6.97
2023-03-07T07:20:06.907Z,8.30
2023-03-07T07:23:15.583Z,4.33
2023-03-07T07:26:22.073Z,2.37
2023-03-07T07:29:27.693Z,2.90
2023-03-07T07:32:33.291Z,3.33
2023-03-07T07:35:40.352Z,7.43
2023-03-07T07:38:46.851Z,4.23
2023-03-07T07:41:52.809Z,2.53
2023-03-07T07:45:00.790Z,4.43
2023-03-07T07:48:06.551Z,3.30
2023-03-07T07:51:12.966Z,3.83
2023-03-07T07:54:20.823Z,1.43
2023-03-07T07:57:28.116Z,3.57
2023-03-07T08:00:39.493Z,1.47
2023-03-07T08:03:45.494Z,1.20
2023-03-07T08:06:52.252Z,5.50
2023-03-07T08:10:01.113Z,1.50
2023-03-07T08:13:06.241Z,1.83
2023-03-07T08:16:15.177Z,1.50
2023-03-07T08:19:20.839Z,2.97
2023-03-07T08:22:26.349Z,1.63
2023-03-07T08:25:33.379Z,1.10
2023-03-07T08:28:38.775Z,1.33
2023-03-07T08:31:46.315Z,1.33
2023-03-07T08:34:52.173Z,1.00
2023-03-07T08:37:58.249Z,1.40
2023-03-07T08:41:06.709Z,2.20
2023-03-07T08:44:16.186Z,5.17
2023-03-07T08:47:21.366Z,5.87
2023-03-07T08:50:32.189Z,1.10
2023-03-07T08:53:38.072Z,1.37
2023-03-07T08:56:44.865Z,1.27
2023-03-07T08:59:50.062Z,1.23
2023-03-07T09:02:58.466Z,1.23
2023-03-07T09:06:08.422Z,1.83
2023-03-07T09:09:14.061Z,1.20
2023-03-07T09:12:20.728Z,1.10
2023-03-07T09:15:26.024Z,3.70
2023-03-07T09:18:31.790Z,3.37
2023-03-07T09:21:37.057Z,2.73
2023-03-07T09:24:42.322Z,0.90
2023-03-07T09:27:51.623Z,0.80
2023-03-07T09:30:57.314Z,1.00
2023-03-07T09:34:02.634Z,1.70
2023-03-07T09:37:07.866Z,1.07
2023-03-07T09:40:18.707Z,0.93
2023-03-07T09:43:28.470Z,3.83
2023-03-07T09:47:16.091Z,1.40
2023-03-07T09:50:26.902Z,1.67
2023-03-07T09:53:38.103Z,2.03
2023-03-07T09:56:46.087Z,0.73
2023-03-07T09:59:54.666Z,1.00
2023-03-07T10:03:09.709Z,1.67
2023-03-07T10:06:17.807Z,0.77
2023-03-07T10:09:25.426Z,0.80
2023-03-07T10:12:38.566Z,8.70
2023-03-07T10:15:50.208Z,7.80
2023-03-07T10:19:06.802Z,0.70
2023-03-07T10:22:18.261Z,5.83
2023-03-07T10:25:27.501Z,1.17
2023-03-07T10:28:34.074Z,2.03
2023-03-07T10:31:42.876Z,4.83
2023-03-07T10:34:48.811Z,2.67
2023-03-07T10:37:56.592Z,3.00
2023-03-07T10:41:04.171Z,1.13
2023-03-07T10:44:13.233Z,0.90
2023-03-07T10:47:23.844Z,1.10
2023-03-07T10:50:37.753Z,0.93
2023-03-07T10:53:43.217Z,2.47
2023-03-07T10:57:07.061Z,3.30
2023-03-07T11:00:18.580Z,2.80
2023-03-07T11:03:28.308Z,5.30
2023-03-07T11:06:40.583Z,6.77
2023-03-07T11:09:48.870Z,3.20
2023-03-07T11:12:54.162Z,1.90
2023-03-07T11:16:18.072Z,1.03
2023-03-07T11:19:34.690Z,0.80
2023-03-07T11:22:40.089Z,0.80
2023-03-07T11:25:45.322Z,1.70
2023-03-07T11:28:50.664Z,3.40
2023-03-07T11:32:05.863Z,1.00
2023-03-07T11:35:17.010Z,0.90
2023-03-07T11:39:06.572Z,0.73
2023-03-07T11:42:18.623Z,0.77
2023-03-07T11:45:32.330Z,1.00
2023-03-07T11:48:54.422Z,7.60
2023-03-07T11:52:09.649Z,0.90
2023-03-07T11:55:26.140Z,1.17
2023-03-07T11:58:42.797Z,1.70
2023-03-07T12:01:55.563Z,1.27
2023-03-07T12:05:20.557Z,1.20
2023-03-07T12:08:41.939Z,0.70
2023-03-07T12:11:59.027Z,2.53
2023-03-07T12:15:08.706Z,3.40
2023-03-07T12:18:36.764Z,0.70
2023-03-07T12:22:07.505Z,2.67
2023-03-07T12:25:24.769Z,3.00
2023-03-07T12:28:31.363Z,1.13
2023-03-07T12:31:39.221Z,4.93
2023-03-07T12:34:47.441Z,0.77
2023-03-07T12:37:56.063Z,1.87
2023-03-07T12:41:06.097Z,0.90
2023-03-07T12:44:17.160Z,2.50
2023-03-07T12:47:27.417Z,1.73
2023-03-07T12:50:38.844Z,1.00
2023-03-07T12:53:48.237Z,0.90
2023-03-07T12:56:58.484Z,1.07
2023-03-07T13:00:11.369Z,0.90
2023-03-07T13:03:23.767Z,0.80
2023-03-07T13:06:29.097Z,2.73
2023-03-07T13:09:34.954Z,1.27
2023-03-07T13:12:41.883Z,3.87
2023-03-07T13:16:03.503Z,0.83
2023-03-07T13:19:52.729Z,5.60
2023-03-07T13:23:01.490Z,1.00
2023-03-07T13:26:15.410Z,1.00
2023-03-07T13:30:01.878Z,0.80
2023-03-07T13:33:27.122Z,1.33
2023-03-07T13:36:34.770Z,1.00
2023-03-07T13:39:40.814Z,2.83
2023-03-07T13:42:47.919Z,2.50
2023-03-07T13:45:55.183Z,2.83
2023-03-07T13:49:02.171Z,2.30
2023-03-07T13:52:27.205Z,0.90
2023-03-07T13:55:40.107Z,0.80
2023-03-07T13:58:48.870Z,6.70
2023-03-07T14:01:57.813Z,0.90
2023-03-07T14:05:05.006Z,1.97
2023-03-07T14:08:13.660Z,0.90
2023-03-07T14:11:24.291Z,0.83
2023-03-07T14:14:42.660Z,0.90
2023-03-07T14:17:57.181Z,2.37
2023-03-07T14:21:09.694Z,1.90
2023-03-07T14:24:40.816Z,0.90
2023-03-07T14:27:58.531Z,0.80
2023-03-07T14:31:06.555Z,1.10
2023-03-07T14:34:23.856Z,0.90
2023-03-07T14:37:30.005Z,0.90
2023-03-07T14:40:42.488Z,1.00
2023-03-07T14:43:56.585Z,1.00
2023-03-07T14:47:08.095Z,0.93
2023-03-07T14:50:18.904Z,1.10
2023-03-07T14:53:26.756Z,1.10
2023-03-07T14:56:34.160Z,3.10
2023-03-07T14:59:39.432Z,1.20
2023-03-07T15:02:49.221Z,2.33
2023-03-07T15:05:58.084Z,2.33
2023-03-07T15:09:06.487Z,3.03
2023-03-07T15:12:15.705Z,1.10
2023-03-07T15:15:29.958Z,1.17
2023-03-07T15:18:36.592Z,4.20
2023-03-07T15:21:47.272Z,3.40
2023-03-07T15:24:53.213Z,1.20
2023-03-07T15:28:04.421Z,3.27
2023-03-07T15:31:14.156Z,1.97
2023-03-07T15:34:26.281Z,1.63
2023-03-07T15:37:37.667Z,1.13
2023-03-07T15:40:44.277Z,3.50
2023-03-07T15:44:05.715Z,1.40
2023-03-07T15:47:18.057Z,1.60
2023-03-07T15:50:25.830Z,3.43
2023-03-07T15:53:34.094Z,5.13
2023-03-07T15:56:41.037Z,1.47
2023-03-07T15:59:51.654Z,1.57
2023-03-07T16:03:22.296Z,1.60
2023-03-07T16:06:37.045Z,1.37
2023-03-07T16:09:44.634Z,1.30
2023-03-07T16:12:51.443Z,1.50
2023-03-07T16:16:09.438Z,1.50
2023-03-07T16:19:15.575Z,3.07
2023-03-07T16:22:22.001Z,1.50
2023-03-07T16:25:32.114Z,1.93
2023-03-07T16:28:38.125Z,1.40
2023-03-07T16:31:43.939Z,1.40
2023-03-07T16:34:49.996Z,1.67
2023-03-07T16:37:56.201Z,1.63
2023-03-07T16:41:06.304Z,1.73
2023-03-07T16:44:17.202Z,2.07
2023-03-07T16:47:22.492Z,1.50
2023-03-07T16:50:29.926Z,1.10
2023-03-07T16:53:35.161Z,3.27
2023-03-07T16:56:44.989Z,1.70
2023-03-07T16:59:50.366Z,1.50
2023-03-07T17:02:56.848Z,3.77
2023-03-07T17:06:02.434Z,1.27
2023-03-07T17:09:09.578Z,1.57
2023-03-07T17:12:16.781Z,3.03
2023-03-07T17:15:26.775Z,2.27
2023-03-07T17:18:34.009Z,2.20
2023-03-07T17:21:41.183Z,1.50
2023-03-07T17:24:46.451Z,2.00
2023-03-07T17:27:55.336Z,2.53
2023-03-07T17:31:01.250Z,1.60
2023-03-07T17:34:06.352Z,0.90
2023-03-07T17:37:14.561Z,1.07
2023-03-07T17:40:20.437Z,1.43
2023-03-07T17:43:27.385Z,2.40
2023-03-07T17:46:32.894Z,1.50
2023-03-07T17:49:40.153Z,1.70
2023-03-07T17:52:46.133Z,3.07
2023-03-07T17:55:51.877Z,2.43
2023-03-07T18:02:24.948Z,1.60
2023-03-07T18:05:30.782Z,1.10
2023-03-07T18:08:36.637Z,1.83
2023-03-07T18:11:43.557Z,2.60
2023-03-07T18:14:50.385Z,1.97
2023-03-07T18:17:56.136Z,2.13
2023-03-07T18:21:01.689Z,1.60
2023-03-07T18:24:19.647Z,3.43
2023-03-07T18:27:26.712Z,4.20
2023-03-07T18:30:35.128Z,4.23
2023-03-07T18:33:41.528Z,3.17
2023-03-07T18:36:48.138Z,2.80
2023-03-07T18:39:54.031Z,2.77
2023-03-07T18:43:02.469Z,7.37
2023-03-07T18:46:11.685Z,3.40
2023-03-07T18:49:18.328Z,4.53
2023-03-07T18:52:23.733Z,4.73
2023-03-07T18:55:33.184Z,11.37
2023-03-07T18:58:39.009Z,3.90
2023-03-07T19:01:50.356Z,3.50
2023-03-07T19:04:55.942Z,4.10
2023-03-07T19:08:01.391Z,4.10
2023-03-07T19:11:08.976Z,7.70
2023-03-07T19:14:15.474Z,2.93
2023-03-07T19:17:23.151Z,3.57
2023-03-07T19:20:29.054Z,4.67
2023-03-07T19:23:34.987Z,3.83
2023-03-07T19:26:41.733Z,4.37
2023-03-07T19:29:47.620Z,3.60
2023-03-07T19:32:54.191Z,4.40
2023-03-07T19:36:08.022Z,3.40
2023-03-07T19:39:20.577Z,4.27
2023-03-07T19:42:26.344Z,4.33
2023-03-07T19:45:31.760Z,4.73
2023-03-07T19:48:40.826Z,6.43
2023-03-07T19:51:46.680Z,4.33
2023-03-07T19:54:54.445Z,3.40
2023-03-07T19:58:00.012Z,3.90
2023-03-07T20:01:09.947Z,4.13
2023-03-07T20:04:17.528Z,3.47
2023-03-07T20:07:23.139Z,3.63
2023-03-07T20:10:28.676Z,7.73
2023-03-07T20:13:34.408Z,3.17
2023-03-07T20:16:40.380Z,8.37
2023-03-07T20:19:47.759Z,4.47
2023-03-07T20:22:56.439Z,4.30
2023-03-07T20:26:06.312Z,3.43
2023-03-07T20:29:13.289Z,2.67
2023-03-07T20:32:18.975Z,2.63
2023-03-07T20:35:26.490Z,3.30
2023-03-07T20:38:32.563Z,4.03
2023-03-07T20:41:38.316Z,3.20
2023-03-07T20:44:43.807Z,2.87
2023-03-07T20:47:49.561Z,5.93
2023-03-07T20:50:58.490Z,3.80
2023-03-07T20:54:04.803Z,9.67
2023-03-07T20:57:11.832Z,3.60
2023-03-07T21:00:17.887Z,3.60
2023-03-07T21:03:23.547Z,4.23
2023-03-07T21:06:30.174Z,3.70
2023-03-07T21:09:35.330Z,4.10
2023-03-07T21:12:40.691Z,3.40
2023-03-07T21:15:54.640Z,3.53
2023-03-07T21:19:03.550Z,3.30
2023-03-07T21:22:10.242Z,2.90
2023-03-07T21:25:15.732Z,6.43
2023-03-07T21:28:20.713Z,3.50
2023-03-07T21:31:27.349Z,4.57
2023-03-07T21:34:32.727Z,8.50
2023-03-07T21:37:39.424Z,6.70
2023-03-07T21:40:44.402Z,8.70
2023-03-07T21:43:50.358Z,3.63
2023-03-07T21:46:56.138Z,4.50
2023-03-07T21:50:01.659Z,3.37
2023-03-07T21:53:09.563Z,6.57
2023-03-07T21:56:18.662Z,2.40
2023-03-07T21:59:23.624Z,4.70
2023-03-07T22:02:28.869Z,6.10
2023-03-07T22:05:34.084Z,6.10
2023-03-07T22:08:41.107Z,3.73
2023-03-07T22:11:45.949Z,4.13
2023-03-07T22:14:51.314Z,3.70
2023-03-07T22:17:56.509Z,3.80
2023-03-07T22:21:10.135Z,4.53
2023-03-07T22:24:16.799Z,5.70
2023-03-07T22:27:22.193Z,3.50
2023-03-07T22:30:27.329Z,3.53
2023-03-07T22:33:32.944Z,2.10
2023-03-07T22:36:38.019Z,4.87
2023-03-07T22:39:44.607Z,6.13
2023-03-07T22:42:51.475Z,4.07
2023-03-07T22:45:56.898Z,6.70
2023-03-07T22:49:01.783Z,4.70
2023-03-07T22:52:07.203Z,3.53
2023-03-07T22:55:15.021Z,4.00
2023-03-07T22:58:20.375Z,5.53
2023-03-07T23:01:28.216Z,5.87
2023-03-07T23:04:33.300Z,3.77
2023-03-07T23:07:40.014Z,2.60
2023-03-07T23:10:47.036Z,4.47
2023-03-07T23:13:51.997Z,3.97
2023-03-07T23:16:57.256Z,5.10
2023-03-07T23:20:02.578Z,2.10
2023-03-07T23:23:07.819Z,3.03
2023-03-07T23:26:18.265Z,4.57
2023-03-07T23:29:23.414Z,2.97
2023-03-07T23:32:28.828Z,3.23
2023-03-07T23:35:34.789Z,1.60
2023-03-07T23:38:39.977Z,6.93
2023-03-07T23:41:46.476Z,2.23
2023-03-07T23:44:51.929Z,2.00
2023-03-07T23:47:56.703Z,1.23
2023-03-07T23:51:01.924Z,2.73
2023-03-07T23:54:06.808Z,2.10
2023-03-07T23:57:13.602Z,2.57
